createdAt,value
2017-08-28T00:01:58.560Z,4.47
2017-08-28T00:04:24.848Z,4.60
2017-08-28T00:06:51.283Z,4.90
2017-08-28T00:09:17.701Z,4.83
2017-08-28T00:11:44.051Z,4.23
2017-08-28T00:14:10.352Z,5.13
2017-08-28T00:16:36.691Z,4.50
2017-08-28T00:19:03.021Z,3.90
2017-08-28T00:21:29.296Z,4.80
2017-08-28T00:23:55.641Z,4.30
2017-08-28T00:26:21.926Z,4.33
2017-08-28T00:28:48.311Z,5.00
2017-08-28T00:31:14.591Z,4.60
2017-08-28T00:33:40.937Z,3.90
2017-08-28T00:36:07.239Z,4.13
2017-08-28T00:38:33.508Z,4.60
2017-08-28T00:40:59.831Z,4.57
2017-08-28T00:43:26.127Z,4.27
2017-08-28T00:45:52.459Z,5.07
2017-08-28T00:48:18.757Z,4.70
2017-08-28T00:50:45.020Z,4.87
2017-08-28T00:53:11.342Z,4.60
2017-08-28T00:55:37.608Z,4.70
2017-08-28T00:58:03.965Z,4.27
2017-08-28T01:00:30.240Z,4.40
2017-08-28T01:02:56.578Z,4.37
2017-08-28T01:05:22.913Z,4.37
2017-08-28T01:07:49.412Z,4.67
2017-08-28T01:10:15.715Z,4.60
2017-08-28T01:12:42.011Z,5.00
2017-08-28T01:15:08.340Z,3.80
2017-08-28T01:17:34.717Z,4.53
2017-08-28T01:20:01.150Z,4.63
2017-08-28T01:22:27.440Z,5.37
2017-08-28T01:24:53.727Z,4.00
2017-08-28T01:27:20.068Z,4.30
2017-08-28T01:29:46.319Z,5.20
2017-08-28T01:32:12.603Z,5.83
2017-08-28T01:34:38.904Z,5.23
2017-08-28T01:37:05.220Z,4.70
2017-08-28T01:39:31.559Z,4.57
2017-08-28T01:41:57.904Z,4.53
2017-08-28T01:44:24.215Z,4.50
2017-08-28T01:46:50.516Z,4.17
2017-08-28T01:49:16.799Z,4.90
2017-08-28T01:51:43.060Z,5.10
2017-08-28T01:54:09.384Z,4.40
2017-08-28T01:56:35.704Z,4.80
2017-08-28T01:59:01.987Z,4.93
2017-08-28T02:01:28.264Z,4.60
2017-08-28T02:03:54.610Z,4.93
2017-08-28T02:06:20.924Z,5.00
2017-08-28T02:08:47.269Z,5.20
2017-08-28T02:11:13.565Z,4.63
2017-08-28T02:13:39.840Z,5.03
2017-08-28T02:16:06.129Z,4.70
2017-08-28T02:18:32.411Z,4.40
2017-08-28T02:20:58.706Z,5.40
2017-08-28T02:23:24.975Z,4.70
2017-08-28T02:25:51.322Z,4.47
2017-08-28T02:28:17.587Z,4.40
2017-08-28T02:30:43.944Z,4.90
2017-08-28T02:33:10.249Z,4.43
2017-08-28T02:35:36.528Z,5.10
2017-08-28T02:38:02.840Z,4.50
2017-08-28T02:40:29.232Z,4.83
2017-08-28T02:42:55.508Z,4.77
2017-08-28T02:45:21.849Z,5.03
2017-08-28T02:47:48.123Z,4.87
2017-08-28T02:50:14.447Z,4.70
2017-08-28T02:52:40.975Z,5.03
2017-08-28T02:55:07.267Z,5.23
2017-08-28T02:57:33.567Z,4.60
2017-08-28T02:59:59.883Z,5.20
2017-08-28T03:02:26.935Z,4.80
2017-08-28T03:04:53.210Z,4.93
2017-08-28T03:07:19.575Z,5.00
2017-08-28T03:09:45.854Z,4.97
2017-08-28T03:12:12.153Z,5.53
2017-08-28T03:14:39.188Z,5.53
2017-08-28T03:17:05.633Z,6.07
2017-08-28T03:19:31.908Z,6.17
2017-08-28T03:21:58.184Z,5.07
2017-08-28T03:24:24.516Z,4.90
2017-08-28T03:26:50.787Z,4.77
2017-08-28T03:29:17.094Z,5.20
2017-08-28T03:31:43.399Z,4.60
2017-08-28T03:34:09.687Z,5.17
2017-08-28T03:36:36.027Z,5.10
2017-08-28T03:39:02.286Z,5.67
2017-08-28T03:41:28.632Z,5.33
2017-08-28T03:43:54.923Z,5.80
2017-08-28T03:46:21.267Z,5.30
2017-08-28T03:48:47.562Z,5.20
2017-08-28T03:51:13.891Z,5.67
2017-08-28T03:53:40.204Z,5.33
2017-08-28T03:56:06.487Z,5.30
2017-08-28T03:58:32.816Z,5.00
2017-08-28T04:00:59.184Z,5.40
2017-08-28T04:03:25.478Z,5.03
2017-08-28T04:05:51.778Z,5.70
2017-08-28T04:08:18.080Z,6.10
2017-08-28T04:10:44.433Z,5.90
2017-08-28T04:13:10.819Z,5.57
2017-08-28T04:15:37.201Z,5.80
2017-08-28T04:18:03.502Z,5.90
2017-08-28T04:20:29.796Z,6.03
2017-08-28T04:22:56.123Z,5.73
2017-08-28T04:25:22.400Z,6.23
2017-08-28T04:27:48.708Z,6.10
2017-08-28T04:30:15.040Z,5.90
2017-08-28T04:32:41.383Z,6.87
2017-08-28T04:35:07.668Z,6.00
2017-08-28T04:37:33.947Z,6.47
2017-08-28T04:40:00.240Z,5.47
2017-08-28T04:42:26.576Z,6.33
2017-08-28T04:44:52.887Z,6.20
2017-08-28T04:47:19.373Z,6.20
2017-08-28T04:49:45.710Z,5.80
2017-08-28T04:52:11.976Z,5.30
2017-08-28T04:54:38.252Z,5.17
2017-08-28T04:57:04.572Z,6.47
2017-08-28T04:59:30.860Z,5.47
2017-08-28T05:01:57.140Z,5.97
2017-08-28T05:04:23.464Z,5.63
2017-08-28T05:06:49.763Z,5.70
2017-08-28T05:09:16.144Z,5.53
2017-08-28T05:11:42.413Z,5.20
2017-08-28T05:14:08.732Z,6.63
2017-08-28T05:16:35.036Z,5.30
2017-08-28T05:19:01.337Z,5.73
2017-08-28T05:21:27.666Z,5.43
2017-08-28T05:23:53.967Z,4.60
2017-08-28T05:26:20.276Z,4.50
2017-08-28T05:28:46.561Z,5.17
2017-08-28T05:31:12.890Z,4.77
2017-08-28T05:33:39.179Z,5.27
2017-08-28T05:36:05.472Z,4.90
2017-08-28T05:38:31.756Z,5.60
2017-08-28T05:40:58.064Z,4.23
2017-08-28T05:43:24.384Z,3.80
2017-08-28T05:45:50.659Z,5.30
2017-08-28T05:48:16.987Z,4.33
2017-08-28T05:50:43.999Z,4.10
2017-08-28T05:53:10.256Z,3.93
2017-08-28T05:55:37.352Z,4.40
2017-08-28T05:58:03.635Z,4.77
2017-08-28T06:00:29.952Z,4.70
2017-08-28T06:02:56.295Z,4.40
2017-08-28T06:05:22.564Z,4.50
2017-08-28T06:07:48.872Z,3.90
2017-08-28T06:10:15.180Z,4.70
2017-08-28T06:12:41.496Z,6.50
2017-08-28T06:15:07.879Z,4.47
2017-08-28T06:17:34.199Z,5.00
2017-08-28T06:20:00.647Z,4.70
2017-08-28T06:22:26.976Z,4.07
2017-08-28T06:24:53.268Z,4.40
2017-08-28T06:27:19.547Z,4.47
2017-08-28T06:29:45.904Z,4.17
2017-08-28T06:32:12.205Z,3.70
2017-08-28T06:34:38.504Z,4.53
2017-08-28T06:37:04.823Z,3.50
2017-08-28T06:39:31.142Z,3.30
2017-08-28T06:41:57.610Z,3.43
2017-08-28T06:44:23.899Z,3.07
2017-08-28T06:46:50.168Z,3.10
2017-08-28T06:49:16.501Z,3.30
2017-08-28T06:51:42.852Z,3.37
2017-08-28T06:54:09.171Z,3.97
2017-08-28T06:56:35.481Z,3.20
2017-08-28T06:59:01.763Z,3.50
2017-08-28T07:01:28.096Z,3.10
2017-08-28T07:03:54.425Z,3.30
2017-08-28T07:06:20.732Z,2.87
2017-08-28T07:08:47.169Z,2.83
2017-08-28T07:11:13.501Z,2.60
2017-08-28T07:13:39.816Z,3.07
2017-08-28T07:16:06.090Z,2.40
2017-08-28T07:18:32.383Z,3.10
2017-08-28T07:20:58.678Z,3.50
2017-08-28T07:23:24.980Z,2.80
2017-08-28T07:25:51.315Z,2.50
2017-08-28T07:28:17.588Z,3.03
2017-08-28T07:30:43.931Z,2.73
2017-08-28T07:33:10.219Z,2.53
2017-08-28T07:35:36.530Z,2.63
2017-08-28T07:38:02.824Z,2.80
2017-08-28T07:40:29.124Z,2.63
2017-08-28T07:42:55.452Z,2.67
2017-08-28T07:45:21.773Z,2.70
2017-08-28T07:47:48.084Z,2.10
2017-08-28T07:50:14.356Z,2.60
2017-08-28T07:52:40.699Z,2.60
2017-08-28T07:55:07.020Z,2.43
2017-08-28T07:57:33.351Z,2.20
2017-08-28T07:59:59.652Z,2.33
2017-08-28T08:02:26.096Z,2.10
2017-08-28T08:04:52.443Z,2.08
2017-08-28T08:07:18.859Z,2.22
2017-08-28T08:09:45.169Z,2.40
2017-08-28T08:12:11.481Z,2.15
2017-08-28T08:14:37.790Z,1.95
2017-08-28T08:17:04.092Z,1.90
2017-08-28T08:19:30.367Z,1.85
2017-08-28T08:21:57.020Z,1.70
2017-08-28T08:24:23.471Z,2.37
2017-08-28T08:26:49.775Z,1.90
2017-08-28T08:29:16.091Z,1.95
2017-08-28T08:31:42.397Z,1.80
2017-08-28T08:34:14.707Z,1.70
2017-08-28T08:36:41.036Z,2.15
2017-08-28T08:39:07.371Z,2.20
2017-08-28T08:41:33.732Z,1.83
2017-08-28T08:44:00.049Z,1.75
2017-08-28T08:46:26.346Z,1.77
2017-08-28T08:48:52.671Z,1.85
2017-08-28T08:51:18.964Z,2.05
2017-08-28T08:53:45.287Z,2.00
2017-08-28T08:56:11.582Z,1.60
2017-08-28T08:58:37.887Z,1.73
2017-08-28T09:01:04.164Z,1.80
2017-08-28T09:03:30.459Z,1.60
2017-08-28T09:05:56.911Z,1.98
2017-08-28T09:08:23.192Z,1.67
2017-08-28T09:10:49.541Z,1.90
2017-08-28T09:13:15.859Z,1.80
2017-08-28T09:15:42.151Z,1.98
2017-08-28T09:18:08.452Z,1.70
2017-08-28T09:20:34.721Z,1.67
2017-08-28T09:23:01.215Z,1.70
2017-08-28T09:25:27.631Z,2.00
2017-08-28T09:27:53.884Z,2.35
2017-08-28T09:30:20.225Z,2.25
2017-08-28T09:32:46.540Z,2.00
2017-08-28T09:35:12.892Z,2.00
2017-08-28T09:37:39.295Z,2.28
2017-08-28T09:40:05.601Z,2.08
2017-08-28T09:42:31.892Z,2.10
2017-08-28T09:44:58.167Z,2.15
2017-08-28T09:47:24.471Z,2.83
2017-08-28T09:49:50.776Z,2.47
2017-08-28T09:52:17.110Z,2.60
2017-08-28T09:54:43.435Z,3.10
2017-08-28T09:57:09.763Z,3.03
2017-08-28T09:59:36.052Z,3.30
2017-08-28T10:02:02.377Z,3.20
2017-08-28T10:04:28.868Z,3.77
2017-08-28T10:06:55.468Z,4.00
2017-08-28T10:09:21.828Z,3.97
2017-08-28T10:11:48.111Z,3.40
2017-08-28T10:14:14.408Z,4.30
2017-08-28T10:16:40.719Z,4.20
2017-08-28T10:19:07.047Z,4.63
2017-08-28T10:21:33.344Z,3.70
2017-08-28T10:23:59.683Z,5.47
2017-08-28T10:26:26.759Z,5.00
2017-08-28T10:28:53.087Z,5.17
2017-08-28T10:31:19.380Z,4.93
2017-08-28T10:33:45.721Z,5.57
2017-08-28T10:36:12.007Z,5.70
2017-08-28T10:38:38.354Z,5.20
2017-08-28T10:41:04.639Z,4.87
2017-08-28T10:43:30.928Z,4.83
2017-08-28T10:45:57.265Z,5.13
2017-08-28T10:48:23.556Z,6.10
2017-08-28T10:50:49.869Z,6.47
2017-08-28T10:53:16.181Z,6.33
2017-08-28T10:55:42.550Z,6.30
2017-08-28T10:58:08.886Z,6.30
2017-08-28T11:00:35.239Z,6.67
2017-08-28T11:03:01.523Z,6.73
2017-08-28T11:05:27.843Z,6.47
2017-08-28T11:07:54.182Z,7.10
2017-08-28T11:10:20.481Z,7.07
2017-08-28T11:12:46.804Z,6.90
2017-08-28T11:15:13.081Z,6.97
2017-08-28T11:17:39.369Z,6.27
2017-08-28T11:20:05.679Z,6.50
2017-08-28T11:22:31.948Z,5.80
2017-08-28T11:24:58.295Z,5.33
2017-08-28T11:27:24.767Z,7.10
2017-08-28T11:29:51.083Z,6.50
2017-08-28T11:32:17.396Z,6.53
2017-08-28T11:34:43.748Z,6.80
2017-08-28T11:37:10.060Z,7.00
2017-08-28T11:39:36.390Z,7.10
2017-08-28T11:42:02.717Z,6.93
2017-08-28T11:44:28.987Z,7.70
2017-08-28T11:46:55.609Z,6.60
2017-08-28T11:49:21.905Z,6.33
2017-08-28T11:51:48.188Z,6.40
2017-08-28T11:54:14.488Z,6.27
2017-08-28T11:56:40.787Z,6.60
2017-08-28T11:59:07.083Z,6.90
2017-08-28T12:01:34.099Z,5.60
2017-08-28T12:04:00.405Z,6.60
2017-08-28T12:06:26.724Z,6.07
2017-08-28T12:08:53.315Z,6.80
2017-08-28T12:11:19.620Z,7.47
2017-08-28T12:13:45.924Z,6.50
2017-08-28T12:16:12.235Z,7.17
2017-08-28T12:18:38.527Z,7.63
2017-08-28T12:21:04.812Z,5.67
2017-08-28T12:23:31.196Z,6.90
2017-08-28T12:25:57.512Z,6.23
2017-08-28T12:28:23.827Z,7.30
2017-08-28T12:30:50.178Z,6.90
2017-08-28T12:33:16.475Z,8.20
2017-08-28T12:35:42.924Z,7.90
2017-08-28T12:38:09.287Z,7.40
2017-08-28T12:40:35.607Z,6.80
2017-08-28T12:43:01.903Z,7.33
2017-08-28T12:45:28.232Z,6.77
2017-08-28T12:47:54.560Z,7.23
2017-08-28T12:50:20.900Z,6.67
2017-08-28T12:52:47.400Z,6.90
2017-08-28T12:55:13.754Z,6.93
2017-08-28T12:57:40.028Z,7.47
2017-08-28T13:00:07.116Z,8.60
2017-08-28T13:02:34.268Z,7.30
2017-08-28T13:05:00.597Z,7.97
2017-08-28T13:07:26.913Z,7.40
2017-08-28T13:09:53.220Z,6.60
2017-08-28T13:12:19.539Z,6.77
2017-08-28T13:14:45.900Z,7.00
2017-08-28T13:17:12.286Z,7.20
2017-08-28T13:19:38.615Z,7.03
2017-08-28T13:22:04.947Z,6.90
2017-08-28T13:24:31.280Z,7.70
2017-08-28T13:26:57.591Z,7.03
2017-08-28T13:29:23.899Z,7.27
2017-08-28T13:31:50.176Z,6.93
2017-08-28T13:34:16.501Z,6.97
2017-08-28T13:36:42.815Z,6.37
2017-08-28T13:39:09.157Z,6.43
2017-08-28T13:41:35.466Z,5.73
2017-08-28T13:44:01.760Z,6.67
2017-08-28T13:46:28.096Z,6.43
2017-08-28T13:48:54.400Z,6.30
2017-08-28T13:51:20.688Z,7.10
2017-08-28T13:53:47.014Z,6.80
2017-08-28T13:56:13.285Z,6.80
2017-08-28T13:58:39.628Z,6.63
2017-08-28T14:01:05.944Z,6.33
2017-08-28T14:03:32.308Z,6.73
2017-08-28T14:05:58.640Z,6.10
2017-08-28T14:08:24.967Z,5.80
2017-08-28T14:10:51.297Z,6.70
2017-08-28T14:13:17.605Z,5.83
2017-08-28T14:15:43.948Z,5.50
2017-08-28T14:18:10.272Z,6.07
2017-08-28T14:20:36.558Z,6.33
2017-08-28T14:23:02.977Z,6.80
2017-08-28T14:25:29.461Z,6.90
2017-08-28T14:27:55.779Z,5.73
2017-08-28T14:30:22.076Z,5.73
2017-08-28T14:32:48.387Z,5.83
2017-08-28T14:35:14.671Z,5.90
2017-08-28T14:37:40.957Z,5.73
2017-08-28T14:40:07.505Z,6.70
2017-08-28T14:42:33.814Z,6.23
2017-08-28T14:45:00.136Z,6.60
2017-08-28T14:47:26.420Z,7.00
2017-08-28T14:49:52.736Z,5.57
2017-08-28T14:52:19.038Z,7.60
2017-08-28T14:54:45.348Z,6.97
2017-08-28T14:57:11.670Z,6.50
2017-08-28T14:59:37.949Z,4.80
2017-08-28T15:02:04.228Z,5.90
2017-08-28T15:04:30.602Z,5.40
2017-08-28T15:06:56.947Z,5.00
2017-08-28T15:09:23.233Z,6.00
2017-08-28T15:11:49.501Z,6.10
2017-08-28T15:14:15.831Z,4.87
2017-08-28T15:16:42.117Z,5.60
2017-08-28T15:19:08.437Z,5.60
2017-08-28T15:21:34.968Z,5.50
2017-08-28T15:24:01.329Z,5.50
2017-08-28T15:26:27.795Z,5.87
2017-08-28T15:28:54.120Z,5.30
2017-08-28T15:31:20.428Z,6.17
2017-08-28T15:33:46.719Z,4.93
2017-08-28T15:36:13.056Z,5.60
2017-08-28T15:38:39.442Z,5.80
2017-08-28T15:41:05.771Z,5.27
2017-08-28T15:43:32.048Z,5.70
2017-08-28T15:45:58.372Z,5.90
2017-08-28T15:48:24.709Z,5.87
2017-08-28T15:50:51.045Z,5.70
2017-08-28T15:53:17.324Z,6.20
2017-08-28T15:55:43.599Z,5.67
2017-08-28T15:58:09.927Z,5.73
2017-08-28T16:00:36.208Z,5.77
2017-08-28T16:03:02.514Z,6.40
2017-08-28T16:05:28.834Z,6.37
2017-08-28T16:07:55.348Z,6.40
2017-08-28T16:10:21.696Z,5.50
2017-08-28T16:12:48.016Z,6.07
2017-08-28T16:15:14.324Z,5.30
2017-08-28T16:17:40.588Z,5.83
2017-08-28T16:20:06.904Z,6.47
2017-08-28T16:22:33.208Z,5.80
2017-08-28T16:24:59.576Z,5.87
2017-08-28T16:27:25.913Z,5.37
2017-08-28T16:29:52.224Z,5.30
2017-08-28T16:32:18.500Z,5.13
2017-08-28T16:34:44.888Z,5.53
2017-08-28T16:37:11.176Z,5.60
2017-08-28T16:39:37.709Z,5.00
2017-08-28T16:42:04.001Z,5.47
2017-08-28T16:44:30.393Z,5.43
2017-08-28T16:46:56.804Z,5.70
2017-08-28T16:49:24.064Z,5.47
2017-08-28T16:51:50.358Z,5.50
2017-08-28T16:54:16.691Z,5.43
2017-08-28T16:56:42.968Z,5.17
2017-08-28T16:59:09.276Z,5.77
2017-08-28T17:01:35.596Z,5.80
2017-08-28T17:04:01.953Z,5.07
2017-08-28T17:06:28.271Z,5.20
2017-08-28T17:08:54.616Z,5.07
2017-08-28T17:11:20.936Z,5.17
2017-08-28T17:13:47.367Z,6.60
2017-08-28T17:16:13.662Z,5.43
2017-08-28T17:18:40.118Z,5.67
2017-08-28T17:21:06.427Z,5.47
2017-08-28T17:23:38.917Z,5.07
2017-08-28T17:26:05.231Z,5.43
2017-08-28T17:28:31.545Z,5.17
2017-08-28T17:30:57.877Z,5.77
2017-08-28T17:33:24.176Z,5.40
2017-08-28T17:35:50.521Z,5.80
2017-08-28T17:38:16.809Z,5.47
2017-08-28T17:40:43.088Z,5.13
2017-08-28T17:43:09.392Z,4.83
2017-08-28T17:45:35.688Z,5.63
2017-08-28T17:48:02.022Z,4.87
2017-08-28T17:50:28.384Z,5.43
2017-08-28T17:52:54.776Z,5.27
2017-08-28T17:55:21.077Z,5.43
2017-08-28T17:57:47.436Z,5.00
2017-08-28T18:00:13.775Z,4.50
2017-08-28T18:02:40.120Z,5.13
2017-08-28T18:05:06.435Z,5.20
2017-08-28T18:07:33.193Z,5.30
2017-08-28T18:09:59.533Z,5.90
2017-08-28T18:12:25.867Z,4.73
2017-08-28T18:14:52.145Z,5.90
2017-08-28T18:17:18.484Z,5.47
2017-08-28T18:19:44.786Z,6.20
2017-08-28T18:22:11.175Z,4.80
2017-08-28T18:24:37.512Z,5.53
2017-08-28T18:27:03.876Z,5.20
2017-08-28T18:29:30.218Z,4.00
2017-08-28T18:31:56.554Z,5.03
2017-08-28T18:34:22.881Z,5.30
2017-08-28T18:36:49.239Z,5.83
2017-08-28T18:39:15.715Z,5.07
2017-08-28T18:41:42.002Z,5.77
2017-08-28T18:44:08.311Z,5.30
2017-08-28T18:46:34.672Z,5.23
2017-08-28T18:49:00.984Z,5.10
2017-08-28T18:51:27.312Z,5.30
2017-08-28T18:53:53.849Z,5.80
2017-08-28T18:56:20.164Z,5.20
2017-08-28T18:58:46.469Z,5.43
2017-08-28T19:01:12.780Z,4.67
2017-08-28T19:03:39.133Z,4.97
2017-08-28T19:06:05.464Z,5.67
2017-08-28T19:08:31.879Z,4.70
2017-08-28T19:10:58.273Z,5.00
2017-08-28T19:13:24.593Z,5.10
2017-08-28T19:15:51.065Z,5.30
2017-08-28T19:18:17.377Z,4.87
2017-08-28T19:20:43.737Z,5.00
2017-08-28T19:23:10.053Z,5.27
2017-08-28T19:25:36.375Z,4.70
2017-08-28T19:28:02.696Z,4.73
2017-08-28T19:30:28.989Z,5.50
2017-08-28T19:32:55.327Z,5.63
2017-08-28T19:35:23.681Z,7.30
2017-08-28T19:37:49.991Z,6.47
2017-08-28T19:40:16.307Z,5.37
2017-08-28T19:42:42.644Z,6.50
2017-08-28T19:45:08.961Z,6.83
2017-08-28T19:47:35.279Z,7.40
2017-08-28T19:50:01.589Z,7.97
2017-08-28T19:52:27.897Z,8.20
2017-08-28T19:54:54.220Z,7.33
2017-08-28T19:57:20.563Z,7.03
2017-08-28T19:59:47.033Z,7.23
2017-08-28T20:02:14.163Z,7.63
2017-08-28T20:04:40.484Z,7.30
2017-08-28T20:07:07.021Z,7.07
2017-08-28T20:09:33.336Z,6.67
2017-08-28T20:11:59.791Z,6.73
2017-08-28T20:14:26.344Z,6.80
2017-08-28T20:16:52.700Z,7.30
2017-08-28T20:19:19.033Z,8.20
2017-08-28T20:21:45.357Z,7.17
2017-08-28T20:24:11.698Z,7.60
2017-08-28T20:26:38.048Z,6.63
2017-08-28T20:29:04.398Z,7.00
2017-08-28T20:31:30.700Z,6.47
2017-08-28T20:33:57.220Z,7.90
2017-08-28T20:36:23.726Z,7.00
2017-08-28T20:38:50.015Z,7.63
2017-08-28T20:41:16.346Z,8.50
2017-08-28T20:43:42.667Z,8.13
2017-08-28T20:46:09.032Z,9.17
2017-08-28T20:48:35.365Z,9.83
2017-08-28T20:51:01.705Z,8.80
2017-08-28T20:53:28.104Z,8.80
2017-08-28T20:55:54.365Z,8.70
2017-08-28T20:58:20.703Z,9.10
2017-08-28T21:00:47.000Z,8.97
2017-08-28T21:03:13.361Z,9.63
2017-08-28T21:05:39.652Z,9.27
2017-08-28T21:08:06.126Z,8.93
2017-08-28T21:10:32.438Z,9.23
2017-08-28T21:12:58.849Z,10.43
2017-08-28T21:15:25.224Z,11.23
2017-08-28T21:17:51.564Z,11.30
2017-08-28T21:20:17.856Z,14.20
2017-08-28T21:22:44.190Z,13.70
2017-08-28T21:25:10.561Z,13.60
2017-08-28T21:27:36.939Z,15.20
2017-08-28T21:30:03.272Z,14.23
2017-08-28T21:32:29.600Z,14.90
2017-08-28T21:34:55.922Z,13.10
2017-08-28T21:37:22.228Z,12.60
2017-08-28T21:42:21.756Z,12.30
2017-08-28T21:44:48.108Z,12.10
2017-08-28T21:47:14.501Z,12.40
2017-08-28T21:49:40.852Z,10.07
2017-08-28T21:52:07.390Z,10.50
2017-08-28T21:54:33.685Z,9.97
2017-08-28T21:57:00.002Z,10.23
2017-08-28T21:59:26.299Z,9.07
2017-08-28T22:01:52.620Z,10.20
2017-08-28T22:04:19.000Z,9.37
2017-08-28T22:06:45.341Z,8.97
2017-08-28T22:09:11.850Z,9.27
2017-08-28T22:11:38.180Z,9.50
2017-08-28T22:14:04.461Z,8.87
2017-08-28T22:16:30.772Z,9.13
2017-08-28T22:18:57.074Z,8.60
2017-08-28T22:21:24.301Z,9.33
2017-08-28T22:23:50.580Z,9.00
2017-08-28T22:26:16.904Z,9.63
2017-08-28T22:28:43.221Z,8.20
2017-08-28T22:31:09.544Z,8.40
2017-08-28T22:33:35.911Z,8.90
2017-08-28T22:36:02.192Z,9.87
2017-08-28T22:38:28.500Z,10.20
2017-08-28T22:40:54.828Z,8.80
2017-08-28T22:43:21.153Z,8.90
2017-08-28T22:45:47.461Z,8.50
2017-08-28T22:48:13.772Z,9.90
2017-08-28T22:50:40.124Z,11.03
2017-08-28T22:53:06.436Z,9.90
2017-08-28T22:55:32.729Z,10.13
2017-08-28T22:57:59.098Z,9.30
2017-08-28T23:00:25.471Z,10.20
2017-08-28T23:02:51.714Z,9.93
2017-08-28T23:05:18.110Z,9.20
2017-08-28T23:07:44.448Z,9.93
2017-08-28T23:10:10.820Z,9.20
2017-08-28T23:12:37.152Z,8.60
2017-08-28T23:15:04.204Z,9.60
2017-08-28T23:17:30.524Z,8.70
2017-08-28T23:19:56.860Z,10.27
2017-08-28T23:22:23.282Z,8.80
2017-08-28T23:24:49.754Z,9.07
2017-08-28T23:27:16.092Z,9.43
2017-08-28T23:29:42.437Z,8.80
2017-08-28T23:32:08.756Z,8.90
2017-08-28T23:34:35.057Z,9.43
2017-08-28T23:37:01.365Z,9.10
2017-08-28T23:39:27.704Z,10.10
2017-08-28T23:41:54.036Z,8.90
2017-08-28T23:44:20.328Z,9.00
2017-08-28T23:46:46.612Z,8.50
2017-08-28T23:49:12.923Z,8.97
2017-08-28T23:51:39.248Z,8.80
2017-08-28T23:54:05.547Z,9.20
2017-08-28T23:56:31.843Z,10.30
2017-08-28T23:58:58.159Z,8.50
